createdAt,value
2023-05-11T00:00:39.000Z,10.52
2023-05-11T00:03:06.277Z,12.13
2023-05-11T00:05:32.855Z,12.77
2023-05-11T00:07:59.348Z,12.25
2023-05-11T00:10:26.050Z,9.98
2023-05-11T00:12:52.515Z,7.90
2023-05-11T00:15:19.113Z,8.45
2023-05-11T00:17:45.668Z,8.57
2023-05-11T00:20:12.177Z,15.68
2023-05-11T00:22:39.207Z,9.18
2023-05-11T00:25:06.456Z,12.10
2023-05-11T00:27:32.967Z,11.05
2023-05-11T00:29:59.422Z,9.68
2023-05-11T00:32:25.870Z,8.05
2023-05-11T00:34:52.416Z,6.78
2023-05-11T00:37:18.858Z,11.32
2023-05-11T00:39:45.405Z,9.25
2023-05-11T00:42:11.866Z,11.90
2023-05-11T00:44:38.340Z,8.23
2023-05-11T00:47:04.947Z,10.07
2023-05-11T00:49:31.561Z,12.20
2023-05-11T00:51:58.287Z,10.30
2023-05-11T00:54:25.272Z,10.32
2023-05-11T00:56:51.871Z,9.02
2023-05-11T00:59:18.756Z,7.90
2023-05-11T01:01:45.739Z,9.52
2023-05-11T01:04:12.841Z,8.68
2023-05-11T01:07:27.552Z,8.75
2023-05-11T01:10:05.902Z,7.63
2023-05-11T01:12:43.458Z,8.88
2023-05-11T01:15:21.471Z,9.05
2023-05-11T01:18:22.080Z,12.18
2023-05-11T01:20:53.233Z,7.40
2023-05-11T01:23:39.906Z,8.63
2023-05-11T01:26:06.302Z,9.52
2023-05-11T01:28:44.727Z,8.30
2023-05-11T01:31:12.604Z,7.95
2023-05-11T01:33:49.812Z,9.18
2023-05-11T01:36:19.484Z,9.30
2023-05-11T01:38:49.071Z,10.82
2023-05-11T01:41:19.067Z,10.23
2023-05-11T01:43:53.511Z,10.77
2023-05-11T01:46:24.379Z,18.83
2023-05-11T01:48:54.557Z,18.55
2023-05-11T01:51:21.177Z,18.50
2023-05-11T01:53:48.595Z,18.00
2023-05-11T01:56:17.764Z,19.13
2023-05-11T01:58:45.423Z,24.73
2023-05-11T02:01:14.283Z,24.13
2023-05-11T02:03:43.058Z,27.77
2023-05-11T02:06:11.553Z,22.52
2023-05-11T02:08:39.387Z,28.88
2023-05-11T02:11:07.272Z,21.85
2023-05-11T02:13:36.648Z,21.55
2023-05-11T02:16:35.220Z,29.08
2023-05-11T02:19:03.194Z,23.67
2023-05-11T02:21:32.400Z,19.50
2023-05-11T02:24:01.796Z,24.02
2023-05-11T02:26:28.335Z,19.10
2023-05-11T02:28:55.541Z,22.60
2023-05-11T02:31:29.723Z,19.70
2023-05-11T02:34:06.300Z,23.08
2023-05-11T02:36:35.701Z,19.33
2023-05-11T02:39:06.986Z,17.90
2023-05-11T02:41:37.793Z,16.83
2023-05-11T02:44:07.431Z,18.90
2023-05-11T02:46:37.029Z,23.17
2023-05-11T02:49:08.053Z,19.90
2023-05-11T02:51:39.329Z,15.80
2023-05-11T02:54:10.925Z,17.15
2023-05-11T03:00:06.825Z,18.08
2023-05-11T03:02:33.480Z,14.57
2023-05-11T03:05:00.001Z,13.73
2023-05-11T03:07:26.661Z,14.38
2023-05-11T03:09:53.398Z,15.57
2023-05-11T03:12:21.235Z,14.00
2023-05-11T03:14:48.341Z,13.00
2023-05-11T03:17:15.835Z,17.33
2023-05-11T03:19:43.343Z,18.45
2023-05-11T03:22:10.653Z,12.05
2023-05-11T03:24:38.500Z,14.40
2023-05-11T03:27:07.827Z,10.70
2023-05-11T03:29:38.452Z,17.35
2023-05-11T03:32:05.501Z,14.43
2023-05-11T03:34:32.465Z,13.82
2023-05-11T03:37:00.733Z,11.98
2023-05-11T03:39:31.236Z,11.48
2023-05-11T03:41:59.310Z,12.13
2023-05-11T03:44:26.675Z,13.73
2023-05-11T03:46:55.261Z,13.05
2023-05-11T03:49:22.400Z,11.93
2023-05-11T03:51:49.373Z,14.13
2023-05-11T03:54:16.112Z,13.35
2023-05-11T03:56:42.640Z,11.52
2023-05-11T03:59:14.464Z,13.32
2023-05-11T04:01:42.613Z,13.20
2023-05-11T04:04:09.211Z,11.07
2023-05-11T04:06:35.807Z,10.38
2023-05-11T04:09:02.229Z,12.93
2023-05-11T04:11:30.421Z,9.23
2023-05-11T04:13:56.990Z,13.63
2023-05-11T04:16:23.482Z,14.38
2023-05-11T04:18:50.110Z,13.23
2023-05-11T04:21:16.654Z,17.60
2023-05-11T04:23:43.165Z,10.43
2023-05-11T04:26:10.105Z,12.43
2023-05-11T04:28:36.571Z,16.75
2023-05-11T04:31:03.175Z,12.57
2023-05-11T04:33:29.813Z,10.02
2023-05-11T04:35:56.391Z,10.35
2023-05-11T04:38:22.959Z,9.68
2023-05-11T04:40:50.668Z,14.90
2023-05-11T04:43:18.523Z,19.70
2023-05-11T04:45:51.693Z,10.57
2023-05-11T04:48:20.519Z,13.23
2023-05-11T04:50:47.761Z,11.85
2023-05-11T04:53:14.400Z,8.82
2023-05-11T04:55:41.030Z,11.80
2023-05-11T04:58:07.530Z,12.95
2023-05-11T05:00:34.119Z,9.68
2023-05-11T05:03:00.606Z,9.80
2023-05-11T05:05:27.223Z,7.93
2023-05-11T05:07:53.686Z,12.15
2023-05-11T05:10:20.586Z,10.23
2023-05-11T05:12:47.404Z,12.73
2023-05-11T05:15:14.077Z,11.32
2023-05-11T05:17:40.701Z,10.65
2023-05-11T05:20:07.938Z,13.52
2023-05-11T05:22:34.922Z,10.60
2023-05-11T05:25:01.490Z,11.50
2023-05-11T05:27:28.106Z,9.32
2023-05-11T05:29:54.631Z,13.85
2023-05-11T05:32:21.107Z,8.40
2023-05-11T05:34:47.638Z,12.90
2023-05-11T05:37:14.200Z,8.30
2023-05-11T05:39:40.927Z,8.40
2023-05-11T05:42:07.559Z,13.88
2023-05-11T05:44:34.066Z,7.03
2023-05-11T05:47:00.583Z,10.68
2023-05-11T05:49:27.093Z,13.63
2023-05-11T05:51:53.617Z,11.70
2023-05-11T05:54:20.211Z,9.73
2023-05-11T05:56:47.688Z,12.27
2023-05-11T05:59:14.513Z,11.85
2023-05-11T06:01:45.573Z,9.55
2023-05-11T06:04:16.044Z,9.82
2023-05-11T06:06:42.702Z,8.15
2023-05-11T06:09:11.332Z,11.73
2023-05-11T06:11:38.276Z,14.20
2023-05-11T06:14:05.808Z,9.00
2023-05-11T06:16:32.574Z,9.40
2023-05-11T06:18:59.292Z,13.75
2023-05-11T06:21:25.769Z,7.90
2023-05-11T06:23:52.517Z,13.52
2023-05-11T06:26:19.206Z,13.90
2023-05-11T06:28:45.721Z,9.30
2023-05-11T06:31:12.721Z,15.80
2023-05-11T06:33:39.256Z,12.40
2023-05-11T06:36:06.740Z,9.13
2023-05-11T06:38:33.208Z,13.00
2023-05-11T06:40:59.796Z,7.63
2023-05-11T06:43:26.739Z,11.00
2023-05-11T06:45:53.268Z,10.10
2023-05-11T06:48:20.465Z,21.95
2023-05-11T06:50:46.996Z,8.82
2023-05-11T06:53:13.954Z,13.25
2023-05-11T06:55:40.700Z,7.72
2023-05-11T06:58:07.246Z,9.02
2023-05-11T07:00:34.004Z,14.07
2023-05-11T07:03:00.653Z,11.45
2023-05-11T07:05:27.935Z,6.97
2023-05-11T07:07:54.440Z,10.13
2023-05-11T07:10:21.206Z,8.70
2023-05-11T07:12:47.911Z,7.80
2023-05-11T07:15:14.393Z,10.48
2023-05-11T07:17:41.014Z,5.25
2023-05-11T07:20:08.345Z,8.63
2023-05-11T07:22:34.816Z,4.07
2023-05-11T07:25:01.597Z,5.18
2023-05-11T07:27:28.188Z,9.48
2023-05-11T07:29:54.697Z,10.80
2023-05-11T07:32:21.207Z,6.43
2023-05-11T07:34:48.544Z,7.05
2023-05-11T07:37:15.271Z,13.30
2023-05-11T07:39:41.814Z,5.35
2023-05-11T07:42:08.360Z,5.95
2023-05-11T07:44:35.018Z,10.27
2023-05-11T07:47:01.839Z,4.63
2023-05-11T07:49:39.976Z,4.93
2023-05-11T07:52:10.384Z,10.40
2023-05-11T07:54:36.965Z,8.95
2023-05-11T07:57:04.098Z,7.53
2023-05-11T07:59:31.193Z,7.63
2023-05-11T08:01:57.845Z,5.35
2023-05-11T08:04:24.505Z,8.75
2023-05-11T08:06:51.202Z,12.77
2023-05-11T08:09:17.934Z,8.18
2023-05-11T08:11:44.480Z,7.03
2023-05-11T08:14:10.997Z,8.38
2023-05-11T08:16:37.990Z,9.68
2023-05-11T08:19:04.725Z,4.22
2023-05-11T08:21:32.858Z,8.90
2023-05-11T08:23:59.405Z,8.88
2023-05-11T08:26:25.876Z,17.42
2023-05-11T08:28:52.831Z,7.13
2023-05-11T08:31:19.410Z,4.32
2023-05-11T08:33:46.063Z,7.63
2023-05-11T08:36:15.717Z,4.60
2023-05-11T08:38:42.292Z,10.05
2023-05-11T08:41:11.894Z,8.10
2023-05-11T08:43:39.832Z,8.55
2023-05-11T08:46:08.830Z,5.47
2023-05-11T08:48:35.924Z,4.90
2023-05-11T08:51:05.596Z,8.38
2023-05-11T08:53:32.701Z,6.10
2023-05-11T08:56:01.100Z,6.85
2023-05-11T08:58:29.031Z,12.07
2023-05-11T09:00:57.351Z,6.38
2023-05-11T09:03:24.059Z,9.65
2023-05-11T09:05:50.925Z,6.03
2023-05-11T09:08:19.230Z,6.68
2023-05-11T09:10:46.255Z,14.77
2023-05-11T09:13:13.196Z,8.05
2023-05-11T09:15:39.784Z,11.63
2023-05-11T09:18:06.933Z,6.05
2023-05-11T09:20:34.786Z,9.35
2023-05-11T09:23:01.915Z,4.50
2023-05-11T09:25:34.851Z,5.68
2023-05-11T09:28:01.561Z,8.25
2023-05-11T09:30:28.443Z,6.40
2023-05-11T09:33:02.697Z,6.50
2023-05-11T09:35:34.463Z,7.05
2023-05-11T09:38:04.809Z,14.82
2023-05-11T09:40:37.317Z,6.28
2023-05-11T09:43:16.816Z,9.07
2023-05-11T09:45:45.469Z,11.45
2023-05-11T09:48:21.402Z,11.65
2023-05-11T09:50:50.145Z,7.32
2023-05-11T09:53:17.377Z,9.15
2023-05-11T09:55:55.648Z,4.30
2023-05-11T09:58:22.264Z,5.15
2023-05-11T10:00:53.742Z,4.85
2023-05-11T10:03:20.576Z,7.55
2023-05-11T10:06:01.279Z,5.68
2023-05-11T10:08:32.369Z,8.13
2023-05-11T10:10:59.208Z,8.23
2023-05-11T10:13:27.313Z,4.70
2023-05-11T10:15:57.620Z,3.22
2023-05-11T10:18:25.720Z,6.63
2023-05-11T10:20:53.577Z,9.88
2023-05-11T10:23:21.103Z,4.60
2023-05-11T10:25:48.416Z,6.30
2023-05-11T10:28:15.474Z,3.10
2023-05-11T10:30:43.089Z,2.33
2023-05-11T10:33:10.628Z,7.70
2023-05-11T10:35:38.509Z,4.45
2023-05-11T10:38:08.643Z,2.10
2023-05-11T10:40:41.994Z,5.10
2023-05-11T10:43:29.879Z,8.55
2023-05-11T10:46:17.867Z,5.47
2023-05-11T10:49:10.158Z,7.70
2023-05-11T10:52:18.080Z,8.38
2023-05-11T10:55:06.775Z,5.28
2023-05-11T10:57:52.073Z,2.45
2023-05-11T11:00:31.289Z,4.60
2023-05-11T11:02:59.024Z,7.63
2023-05-11T11:05:38.081Z,11.07
2023-05-11T11:08:07.316Z,6.82
2023-05-11T11:10:35.750Z,4.40
2023-05-11T11:13:04.640Z,9.48
2023-05-11T11:16:06.441Z,6.15
2023-05-11T11:21:03.024Z,16.13
2023-05-11T11:23:45.467Z,4.60
2023-05-11T11:26:16.635Z,4.50
2023-05-11T11:29:08.339Z,3.22
2023-05-11T11:34:29.312Z,3.63
2023-05-11T11:36:55.812Z,4.72
2023-05-11T11:39:23.100Z,4.72
2023-05-11T11:42:07.062Z,2.22
2023-05-11T11:44:39.573Z,4.55
2023-05-11T11:47:12.127Z,19.15
2023-05-11T11:49:40.352Z,5.28
2023-05-11T11:52:12.513Z,10.15
2023-05-11T11:54:45.453Z,4.38
2023-05-11T11:57:30.232Z,5.18
2023-05-11T11:59:57.115Z,6.57
2023-05-11T12:02:24.537Z,2.88
2023-05-11T12:05:00.146Z,4.72
2023-05-11T12:07:31.336Z,4.65
2023-05-11T12:09:58.175Z,4.18
2023-05-11T12:12:25.363Z,3.58
2023-05-11T12:14:51.851Z,8.10
2023-05-11T12:17:28.063Z,7.10
2023-05-11T12:19:55.912Z,6.05
2023-05-11T12:22:24.351Z,6.93
2023-05-11T12:24:51.232Z,6.55
2023-05-11T12:27:21.102Z,8.40
2023-05-11T12:29:51.416Z,5.72
2023-05-11T12:32:31.909Z,12.82
2023-05-11T12:35:02.775Z,11.68
2023-05-11T12:37:31.135Z,9.35
2023-05-11T12:39:58.335Z,3.17
2023-05-11T12:42:25.375Z,5.47
2023-05-11T12:44:52.305Z,5.68
2023-05-11T12:47:18.962Z,3.88
2023-05-11T12:49:45.682Z,15.02
2023-05-11T12:52:16.393Z,4.30
2023-05-11T12:54:51.691Z,4.13
2023-05-11T12:57:26.587Z,7.28
2023-05-11T13:00:25.609Z,3.95
2023-05-11T13:02:54.887Z,5.18
2023-05-11T13:05:27.800Z,3.55
2023-05-11T13:08:02.211Z,8.82
2023-05-11T13:10:29.544Z,6.35
2023-05-11T13:12:56.594Z,4.80
2023-05-11T13:15:24.530Z,9.63
2023-05-11T13:18:16.504Z,4.53
2023-05-11T13:20:44.865Z,6.32
2023-05-11T13:23:13.891Z,3.03
2023-05-11T13:25:46.513Z,2.58
2023-05-11T13:28:15.425Z,4.35
2023-05-11T13:30:42.483Z,5.82
2023-05-11T13:33:09.434Z,3.17
2023-05-11T13:35:39.981Z,3.20
2023-05-11T13:38:06.898Z,6.68
2023-05-11T13:40:34.059Z,3.15
2023-05-11T13:43:00.803Z,6.07
2023-05-11T13:45:28.403Z,4.30
2023-05-11T13:47:57.831Z,7.15
2023-05-11T13:50:26.064Z,2.97
2023-05-11T13:52:53.761Z,6.55
2023-05-11T13:55:21.187Z,4.05
2023-05-11T13:57:48.297Z,4.07
2023-05-11T14:00:15.403Z,8.60
2023-05-11T14:02:42.147Z,2.70
2023-05-11T14:05:09.183Z,4.47
2023-05-11T14:07:46.384Z,3.75
2023-05-11T14:10:15.329Z,11.52
2023-05-11T14:12:41.938Z,3.13
2023-05-11T14:15:09.069Z,5.47
2023-05-11T14:17:35.876Z,6.82
2023-05-11T14:20:03.291Z,7.88
2023-05-11T14:22:29.857Z,5.97
2023-05-11T14:24:56.390Z,5.72
2023-05-11T14:27:23.495Z,4.13
2023-05-11T14:29:52.059Z,7.53
2023-05-11T14:32:22.046Z,2.92
2023-05-11T14:34:48.820Z,4.28
2023-05-11T14:37:15.577Z,3.47
2023-05-11T14:39:42.117Z,4.20
2023-05-11T14:42:09.268Z,4.60
2023-05-11T14:44:35.825Z,11.70
2023-05-11T14:47:02.518Z,3.00
2023-05-11T14:49:29.018Z,4.78
2023-05-11T14:51:56.588Z,3.03
2023-05-11T14:54:23.298Z,3.42
2023-05-11T14:56:53.877Z,5.47
2023-05-11T14:59:26.416Z,4.22
2023-05-11T15:01:53.272Z,3.85
2023-05-11T15:04:20.396Z,2.00
2023-05-11T15:06:47.016Z,1.98
2023-05-11T15:09:13.681Z,3.35
2023-05-11T15:11:40.163Z,4.68
2023-05-11T15:14:09.831Z,7.18
2023-05-11T15:16:37.110Z,3.92
2023-05-11T15:19:05.081Z,4.38
2023-05-11T15:21:32.568Z,6.43
2023-05-11T15:23:59.110Z,5.75
2023-05-11T15:26:25.963Z,6.53
2023-05-11T15:28:52.530Z,6.32
2023-05-11T15:31:19.071Z,7.60
2023-05-11T15:33:45.712Z,2.60
2023-05-11T15:36:14.181Z,5.25
2023-05-11T15:38:42.377Z,5.13
2023-05-11T15:41:09.387Z,4.70
2023-05-11T15:43:35.902Z,5.35
2023-05-11T15:46:03.888Z,4.60
2023-05-11T15:48:30.719Z,5.60
2023-05-11T15:50:59.724Z,3.92
2023-05-11T15:53:26.929Z,8.55
2023-05-11T15:55:55.406Z,7.55
2023-05-11T15:58:22.982Z,10.90
2023-05-11T16:00:49.585Z,6.68
2023-05-11T16:03:16.584Z,3.17
2023-05-11T16:05:44.557Z,2.63
2023-05-11T16:08:11.328Z,2.67
2023-05-11T16:10:37.897Z,5.32
2023-05-11T16:13:04.535Z,4.50
2023-05-11T16:15:32.105Z,8.52
2023-05-11T16:17:58.704Z,2.70
2023-05-11T16:20:25.421Z,5.78
2023-05-11T16:22:52.208Z,4.30
2023-05-11T16:25:18.997Z,8.38
2023-05-11T16:27:45.562Z,9.15
2023-05-11T16:30:23.278Z,2.90
2023-05-11T16:32:52.450Z,8.95
2023-05-11T16:35:19.128Z,11.05
2023-05-11T16:37:47.655Z,7.90
2023-05-11T16:40:14.362Z,5.38
2023-05-11T16:42:40.868Z,3.35
2023-05-11T16:45:07.746Z,4.22
2023-05-11T16:47:34.404Z,6.75
2023-05-11T16:50:00.883Z,4.47
2023-05-11T16:52:27.644Z,7.10
2023-05-11T16:54:54.895Z,4.32
2023-05-11T16:57:22.663Z,6.63
2023-05-11T16:59:49.170Z,4.90
2023-05-11T17:02:15.638Z,7.82
2023-05-11T17:04:42.197Z,3.33
2023-05-11T17:07:10.907Z,5.10
2023-05-11T17:09:37.473Z,8.40
2023-05-11T17:12:10.600Z,3.75
2023-05-11T17:14:37.314Z,5.82
2023-05-11T17:17:04.849Z,5.88
2023-05-11T17:19:31.457Z,4.07
2023-05-11T17:21:58.659Z,8.10
2023-05-11T17:24:25.565Z,6.85
2023-05-11T17:26:52.174Z,7.20
2023-05-11T17:29:18.741Z,5.72
2023-05-11T17:31:48.721Z,8.45
2023-05-11T17:34:15.948Z,2.53
2023-05-11T17:36:53.309Z,3.88
2023-05-11T17:39:19.915Z,5.25
2023-05-11T17:41:47.391Z,4.57
2023-05-11T17:44:14.120Z,5.80
2023-05-11T17:46:40.670Z,3.85
2023-05-11T17:49:08.003Z,7.70
2023-05-11T17:51:34.505Z,3.33
2023-05-11T17:54:01.414Z,5.25
2023-05-11T17:56:27.937Z,5.88
2023-05-11T17:58:54.670Z,6.45
2023-05-11T18:01:22.588Z,7.30
2023-05-11T18:03:49.568Z,6.80
2023-05-11T18:06:16.456Z,6.65
2023-05-11T18:08:42.980Z,4.70
2023-05-11T18:11:10.888Z,7.13
2023-05-11T18:13:37.435Z,5.60
2023-05-11T18:16:04.453Z,7.90
2023-05-11T18:18:31.930Z,5.15
2023-05-11T18:20:59.368Z,6.53
2023-05-11T18:23:25.815Z,6.40
2023-05-11T18:25:52.267Z,4.38
2023-05-11T18:28:18.778Z,6.80
2023-05-11T18:30:45.229Z,5.10
2023-05-11T18:33:11.761Z,4.45
2023-05-11T18:35:40.241Z,5.47
2023-05-11T18:38:07.110Z,7.95
2023-05-11T18:40:34.486Z,5.68
2023-05-11T18:43:01.572Z,6.47
2023-05-11T18:45:32.920Z,3.85
2023-05-11T18:47:59.432Z,4.75
2023-05-11T18:50:27.091Z,4.05
2023-05-11T18:52:53.700Z,4.97
2023-05-11T18:55:20.268Z,9.95
2023-05-11T18:57:46.892Z,6.47
2023-05-11T19:00:13.730Z,7.60
2023-05-11T19:02:40.308Z,7.50
2023-05-11T19:05:07.417Z,10.07
2023-05-11T19:07:33.936Z,4.45
2023-05-11T19:10:00.404Z,6.20
2023-05-11T19:12:27.288Z,5.15
2023-05-11T19:14:56.123Z,6.38
2023-05-11T19:17:23.534Z,4.93
2023-05-11T19:19:50.189Z,4.93
2023-05-11T19:22:17.309Z,5.05
2023-05-11T19:24:43.814Z,5.78
2023-05-11T19:27:10.408Z,8.45
2023-05-11T19:29:36.992Z,12.90
2023-05-11T19:32:03.693Z,3.83
2023-05-11T19:34:30.296Z,6.57
2023-05-11T19:36:56.889Z,6.55
2023-05-11T19:39:24.366Z,8.55
2023-05-11T19:41:50.962Z,5.70
2023-05-11T19:44:17.830Z,6.47
2023-05-11T19:46:46.881Z,6.78
2023-05-11T19:49:15.001Z,6.82
2023-05-11T19:51:42.343Z,3.33
2023-05-11T19:54:09.631Z,9.15
2023-05-11T19:56:36.156Z,13.35
2023-05-11T19:59:02.863Z,7.10
2023-05-11T20:01:29.413Z,7.53
2023-05-11T20:03:56.645Z,5.75
2023-05-11T20:06:23.328Z,4.90
2023-05-11T20:08:51.553Z,7.20
2023-05-11T20:11:18.249Z,7.75
2023-05-11T20:13:45.030Z,4.57
2023-05-11T20:16:11.576Z,6.30
2023-05-11T20:18:38.153Z,7.57
2023-05-11T20:21:04.651Z,7.88
2023-05-11T20:23:31.125Z,8.02
2023-05-11T20:25:57.694Z,8.80
2023-05-11T20:28:27.923Z,7.15
2023-05-11T20:30:56.142Z,8.00
2023-05-11T20:35:53.574Z,5.63
2023-05-11T20:38:20.543Z,10.60
2023-05-11T20:40:47.270Z,10.18
2023-05-11T20:43:14.963Z,11.50
2023-05-11T20:45:42.302Z,7.55
2023-05-11T20:48:09.165Z,6.80
2023-05-11T20:50:35.759Z,7.90
2023-05-11T20:53:02.476Z,10.13
2023-05-11T20:55:29.137Z,7.70
2023-05-11T20:57:55.699Z,6.10
2023-05-11T21:00:22.816Z,7.70
2023-05-11T21:02:49.795Z,9.85
2023-05-11T21:05:16.512Z,9.95
2023-05-11T21:07:43.033Z,8.02
2023-05-11T21:10:12.417Z,9.15
2023-05-11T21:12:38.968Z,4.70
2023-05-11T21:15:07.061Z,5.30
2023-05-11T21:17:33.741Z,10.82
2023-05-11T21:20:00.501Z,4.82
2023-05-11T21:22:27.160Z,6.45
2023-05-11T21:24:53.839Z,6.97
2023-05-11T21:27:20.383Z,6.32
2023-05-11T21:29:48.133Z,7.32
2023-05-11T21:32:14.941Z,6.10
2023-05-11T21:34:42.439Z,4.93
2023-05-11T21:37:09.084Z,6.70
2023-05-11T21:39:35.688Z,9.20
2023-05-11T21:42:03.502Z,8.10
2023-05-11T21:44:30.024Z,11.85
2023-05-11T21:46:56.642Z,10.23
2023-05-11T21:49:23.301Z,6.50
2023-05-11T21:51:50.227Z,7.43
2023-05-11T21:54:16.799Z,14.48
2023-05-11T21:56:43.605Z,10.43
2023-05-11T21:59:10.169Z,6.30
2023-05-11T22:01:36.718Z,6.63
2023-05-11T22:04:03.555Z,11.15
2023-05-11T22:06:30.853Z,9.25
2023-05-11T22:08:57.326Z,7.80
2023-05-11T22:11:24.258Z,11.70
2023-05-11T22:13:51.019Z,6.78
2023-05-11T22:16:17.664Z,9.00
2023-05-11T22:18:44.421Z,10.63
2023-05-11T22:21:11.017Z,8.00
2023-05-11T22:23:37.630Z,7.22
2023-05-11T22:26:04.550Z,8.20
2023-05-11T22:28:31.018Z,9.25
2023-05-11T22:31:00.628Z,8.15
2023-05-11T22:33:27.114Z,9.50
2023-05-11T22:35:53.637Z,10.68
2023-05-11T22:38:20.194Z,11.82
2023-05-11T22:40:46.694Z,8.82
2023-05-11T22:43:13.226Z,11.45
2023-05-11T22:45:39.915Z,8.50
2023-05-11T22:48:07.278Z,13.05
2023-05-11T22:50:33.867Z,6.20
2023-05-11T22:53:00.649Z,11.65
2023-05-11T22:55:27.189Z,10.63
2023-05-11T22:57:53.625Z,6.32
2023-05-11T23:00:20.577Z,10.68
2023-05-11T23:02:47.537Z,9.65
2023-05-11T23:05:14.288Z,11.57
2023-05-11T23:07:40.807Z,7.53
2023-05-11T23:10:07.645Z,13.07
2023-05-11T23:12:34.230Z,12.75
2023-05-11T23:15:01.021Z,9.05
2023-05-11T23:17:27.696Z,10.52
2023-05-11T23:19:54.236Z,18.60
2023-05-11T23:22:20.772Z,7.00
2023-05-11T23:24:47.312Z,9.02
2023-05-11T23:27:14.121Z,9.75
2023-05-11T23:29:40.723Z,11.68
2023-05-11T23:32:07.301Z,7.35
2023-05-11T23:34:33.823Z,11.02
2023-05-11T23:37:00.425Z,7.63
2023-05-11T23:39:26.922Z,8.55
2023-05-11T23:41:53.410Z,9.88
2023-05-11T23:44:20.272Z,9.73
2023-05-11T23:46:46.884Z,17.00
2023-05-11T23:49:13.537Z,7.97
2023-05-11T23:51:40.088Z,12.15
2023-05-11T23:54:07.099Z,15.00
2023-05-11T23:56:33.770Z,18.27
2023-05-11T23:59:00.287Z,8.07
